Airfield :
LOGIN :

Register | Disclaimer

   EN    FR    IT 

 










Legend :    VFR   Marginal VFR   IFR   Intensive IFR   Very Intensive IFR
Visi :
Ceiling :
>= 8 km
>= 3000ft
5 to 8 km
1000 to 3000 ft
1500m to 5 km
500 to 1000 ft
800 to 1500m
200 to 500 ft
< 800m
< 200 ft
Symbols :   Thunderstorms  Fog  Heavy snow  Heavy precipitations  Wind > 20 kt
SIGMETs :     Misc.  Thunderstorms  Icing  Turbulence  Mountain Waves  Volcanic Ashes






- Airport Elevation : 327 ft
- IATA code : BHX


EGBB - Birmingham

CURRENT METAR :
  • 270520Z AUTO 32004KT 9999 FEW041/// 12/07 Q1037

EXPIRED METARs :
  • 270450Z AUTO 31005KT 9999 BKN040/// 12/07 Q1037
  • 270420Z AUTO 32005KT 9999 NCD 12/06 Q1036
  • 270350Z AUTO 33004KT 9999 SCT041/// 12/07 Q1036
  • 270320Z AUTO 34004KT 9999 FEW045/// 13/07 Q1036
  • 270250Z AUTO 32006KT 9999 NCD 13/08 Q1037

TAF TAF EGBB
Valid from the 27 at 06:00 until the 28 at 06:00 UTC


270458Z 2706/2806 34005KT 9999 SCT040
BECMG 2715/2718 08010KT
PROB30 2803/2806 8000
ATIS : +44 121 780 0910



MET'MAP, your aeronautical weather chart ! - Copyright ORBIFLY December 2007 - Disclaimer

ORBIFLY MET'MAP TEAM :

Programming & Development : Alexandra Zaïnal
Concept & original design : Baudouin d'Aumeries
Assistance for programming : Marc-Olivier Méhu
Technical & hardware support : Manuel Goepfert

Contact : metmap@orbifly.com




SOURCES & CREDITS :

   NOAA